createdAt,value
2019-01-19T00:00:38.921Z,96795.90
2019-01-19T00:03:46.049Z,96790.81
2019-01-19T00:06:53.268Z,96791.41
2019-01-19T00:10:01.740Z,96792.37
2019-01-19T00:13:10.238Z,96789.69
2019-01-19T00:16:18.698Z,96786.08
2019-01-19T00:19:25.892Z,96786.08
2019-01-19T00:22:34.375Z,96785.09
2019-01-19T00:25:41.541Z,96778.72
2019-01-19T00:28:48.862Z,96781.12
2019-01-19T00:31:57.423Z,96778.72
2019-01-19T00:35:05.907Z,96774.20
2019-01-19T00:38:14.416Z,96774.83
2019-01-19T00:41:21.654Z,96780.20
2019-01-19T00:44:30.131Z,96776.14
2019-01-19T00:47:37.376Z,96779.23
2019-01-19T00:50:44.617Z,96781.66
2019-01-19T00:53:53.082Z,96779.70
2019-01-19T00:57:00.273Z,96781.56
2019-01-19T01:00:08.759Z,96782.25
2019-01-19T01:03:17.487Z,96781.24
2019-01-19T01:06:24.641Z,96776.41
2019-01-19T01:09:31.868Z,96779.38
2019-01-19T01:12:39.095Z,96769.70
2019-01-19T01:15:46.313Z,96770.89
2019-01-19T01:18:53.538Z,96776.12
2019-01-19T01:22:01.532Z,96770.45
2019-01-19T01:25:08.728Z,96771.25
2019-01-19T01:28:15.958Z,96774.41
2019-01-19T01:31:23.190Z,96770.20
2019-01-19T01:34:30.409Z,96772.02
2019-01-19T01:37:37.696Z,96774.03
2019-01-19T01:40:44.919Z,96768.56
2019-01-19T01:43:34.255Z,96763.34
2019-01-19T01:46:42.750Z,96768.30
2019-01-19T01:49:32.062Z,96765.56
2019-01-19T01:52:40.550Z,96768.81
2019-01-19T01:55:49.106Z,96761.75
2019-01-19T01:58:38.422Z,96760.71
2019-01-19T02:01:46.908Z,96761.69
2019-01-19T02:04:55.396Z,96758.80
2019-01-19T02:08:03.870Z,96755.54
2019-01-19T02:11:11.099Z,96757.06
2019-01-19T02:14:19.578Z,96757.77
2019-01-19T02:17:28.024Z,96752.80
2019-01-19T02:20:36.602Z,96752.75
2019-01-19T02:23:45.045Z,96755.89
2019-01-19T02:26:53.570Z,96755.52
2019-01-19T02:30:00.748Z,96748.95
2019-01-19T02:33:09.236Z,96753.87
2019-01-19T02:36:16.463Z,96747.82
2019-01-19T02:39:23.630Z,96749.73
2019-01-19T02:42:32.122Z,96747.03
2019-01-19T02:45:40.615Z,96748.49
2019-01-19T02:48:49.123Z,96741.86
2019-01-19T02:51:56.357Z,96736.48
2019-01-19T02:55:03.637Z,96736.48
2019-01-19T02:58:10.817Z,96738.31
2019-01-19T03:04:13.022Z,96734.50
2019-01-19T03:07:20.240Z,96731.89
2019-01-19T03:10:27.497Z,96728.63
2019-01-19T03:13:36.016Z,96733.95
2019-01-19T03:16:44.507Z,96734.60
2019-01-19T03:19:52.951Z,96734.25
2019-01-19T03:23:01.486Z,96729.02
2019-01-19T03:26:08.684Z,96722.75
2019-01-19T03:29:15.931Z,96722.30
2019-01-19T03:32:24.385Z,96720.39
2019-01-19T03:35:32.871Z,96730.03
2019-01-19T03:38:40.114Z,96726.22
2019-01-19T03:41:48.679Z,96726.70
2019-01-19T03:44:57.139Z,96720.62
2019-01-19T03:48:05.613Z,96714.41
2019-01-19T03:51:14.383Z,96714.53
2019-01-19T03:54:23.101Z,96703.57
2019-01-19T03:57:33.506Z,96708.33
2019-01-19T04:00:41.374Z,96709.52
2019-01-19T04:03:31.805Z,96708.39
2019-01-19T04:06:39.631Z,96704.28
2019-01-19T04:09:46.846Z,96703.78
2019-01-19T04:12:54.353Z,96700.73
2019-01-19T04:15:35.711Z,96697.69
2019-01-19T04:18:43.067Z,96696.97
2019-01-19T04:21:51.556Z,96707.02
2019-01-19T04:30:20.541Z,96692.20
2019-01-19T04:33:08.533Z,96694.57
2019-01-19T04:35:56.354Z,96689.77
2019-01-19T04:40:58.847Z,96685.39
2019-01-19T04:43:46.917Z,96683.92
2019-01-19T04:46:34.848Z,96685.49
2019-01-19T04:54:37.178Z,96676.09
2019-01-19T04:57:05.859Z,96683.42
2019-01-19T04:59:53.827Z,96678.05
2019-01-19T05:02:41.760Z,96675.25
2019-01-19T05:08:04.022Z,96674.68
2019-01-19T05:16:14.288Z,96676.74
2019-01-19T05:19:02.223Z,96666.68
2019-01-19T05:22:10.726Z,96663.73
2019-01-19T05:24:58.894Z,96665.99
2019-01-19T05:27:46.836Z,96658.16
2019-01-19T05:30:57.042Z,96656.25
2019-01-19T05:33:25.738Z,96658.77
2019-01-19T05:36:13.674Z,96655.65
2019-01-19T05:44:29.400Z,96646.87
2019-01-19T05:47:17.324Z,96645.87
2019-01-19T05:55:13.717Z,96654.70
2019-01-19T05:57:42.397Z,96651.38
2019-01-19T06:00:50.886Z,96657.11
2019-01-19T06:03:38.846Z,96658.16
2019-01-19T06:06:26.659Z,96657.77
2019-01-19T06:09:14.612Z,96656.86
2019-01-19T06:12:02.454Z,96657.12
2019-01-19T06:14:50.234Z,96653.66
2019-01-19T06:17:38.078Z,96650.69
2019-01-19T06:20:46.587Z,96649.38
2019-01-19T06:26:08.912Z,96644.05
2019-01-19T06:28:56.864Z,96645.97
2019-01-19T06:31:44.806Z,96650.16
2019-01-19T06:34:32.761Z,96641.09
2019-01-19T06:37:20.726Z,96639.52
2019-01-19T06:39:49.457Z,96643.05
2019-01-19T06:42:37.302Z,96643.47
2019-01-19T06:45:45.817Z,96638.98
2019-01-19T06:48:33.903Z,96632.31
2019-01-19T06:53:37.203Z,96641.00
2019-01-19T06:56:05.918Z,96634.61
2019-01-19T06:58:53.939Z,96635.36
2019-01-19T07:09:45.128Z,96629.09
2019-01-19T07:15:01.556Z,96633.27
2019-01-19T07:20:57.694Z,96631.06
2019-01-19T07:26:33.227Z,96632.83
2019-01-19T07:29:21.184Z,96623.73
2019-01-19T07:32:09.111Z,96629.16
2019-01-19T07:34:56.971Z,96628.19
2019-01-19T07:37:44.818Z,96630.91
2019-01-19T07:40:53.261Z,96629.25
2019-01-19T07:46:41.280Z,96631.27
2019-01-19T07:52:03.414Z,96636.28
2019-01-19T07:54:51.384Z,96635.33
2019-01-19T07:57:20.096Z,96635.72
2019-01-19T08:00:31.415Z,96630.45
2019-01-19T08:03:40.106Z,96637.89
2019-01-19T08:06:27.944Z,96632.91
2019-01-19T08:09:15.921Z,96636.83
2019-01-19T08:12:03.884Z,96633.31
2019-01-19T08:31:13.294Z,96641.10
2019-01-19T08:34:01.133Z,96638.16
2019-01-19T08:36:49.118Z,96633.89
2019-01-19T08:39:37.139Z,96637.74
2019-01-19T08:44:40.103Z,96625.05
2019-01-19T08:50:15.714Z,96637.38
2019-01-19T08:55:32.416Z,96631.44
2019-01-19T09:04:09.424Z,96634.17
2019-01-19T09:06:57.446Z,96634.89
2019-01-19T09:10:06.225Z,96630.25
2019-01-19T09:12:54.671Z,96639.19
2019-01-19T09:21:53.681Z,96641.77
2019-01-19T09:24:41.710Z,96647.06
2019-01-19T09:30:03.716Z,96647.16
2019-01-19T09:37:56.020Z,96645.06
2019-01-19T09:40:44.000Z,96642.89
2019-01-19T09:46:00.278Z,96645.64
2019-01-19T09:48:48.312Z,96639.16
2019-01-19T09:51:56.823Z,96641.92
2019-01-19T09:57:32.387Z,96639.94
2019-01-19T10:00:01.157Z,96639.77
2019-01-19T10:02:49.129Z,96633.00
2019-01-19T10:05:57.637Z,96630.83
2019-01-19T10:08:45.607Z,96629.64
2019-01-19T10:11:33.474Z,96627.58
2019-01-19T10:14:21.448Z,96631.48
2019-01-19T10:17:09.440Z,96621.61
2019-01-19T10:22:12.202Z,96620.94
2019-01-19T10:30:41.378Z,96622.32
2019-01-19T10:33:10.163Z,96622.77
2019-01-19T10:35:58.090Z,96620.36
2019-01-19T10:38:26.821Z,96624.53
2019-01-19T10:44:02.371Z,96611.10
2019-01-19T10:49:43.436Z,96611.33
2019-01-19T10:52:12.176Z,96601.72
2019-01-19T10:57:34.370Z,96604.42
2019-01-19T11:06:04.287Z,96601.98
2019-01-19T11:08:52.128Z,96600.52
2019-01-19T11:11:40.103Z,96597.33
2019-01-19T11:14:28.040Z,96597.72
2019-01-19T11:19:30.959Z,96603.05
2019-01-19T11:24:47.332Z,96580.71
2019-01-19T11:33:38.153Z,96571.02
2019-01-19T11:36:25.954Z,96574.31
2019-01-19T11:39:14.038Z,96568.20
2019-01-19T11:42:01.966Z,96565.06
2019-01-19T11:44:51.336Z,96566.54
2019-01-19T11:47:39.620Z,96555.73
2019-01-19T11:50:48.132Z,96550.70
2019-01-19T11:53:36.091Z,96551.72
2019-01-19T11:56:23.887Z,96547.41
2019-01-19T11:59:11.862Z,96541.18
2019-01-19T12:09:42.493Z,96538.48
2019-01-19T12:12:30.479Z,96531.77
2019-01-19T12:21:00.935Z,96523.86
2019-01-19T12:23:29.597Z,96520.11
2019-01-19T12:25:58.396Z,96519.42
2019-01-19T12:28:27.176Z,96522.02
2019-01-19T12:31:15.019Z,96511.28
2019-01-19T12:39:45.622Z,96498.34
2019-01-19T12:42:54.766Z,96498.25
2019-01-19T12:46:05.057Z,96490.38
2019-01-19T12:51:07.898Z,96500.20
2019-01-19T12:56:43.606Z,96493.30
2019-01-19T12:59:31.447Z,96495.16
2019-01-19T13:02:40.033Z,96498.36
2019-01-19T13:05:48.531Z,96484.75
2019-01-19T13:08:56.987Z,96494.27
2019-01-19T13:12:04.659Z,96484.58
2019-01-19T13:15:13.174Z,96493.89
2019-01-19T13:18:21.755Z,96490.91
2019-01-19T13:21:29.045Z,96492.67
2019-01-19T13:24:38.012Z,96482.26
2019-01-19T13:27:45.215Z,96483.80
2019-01-19T13:30:52.458Z,96484.81
2019-01-19T13:34:01.008Z,96476.70
2019-01-19T13:37:08.219Z,96481.08
2019-01-19T13:40:16.682Z,96482.39
2019-01-19T13:43:23.923Z,96475.13
2019-01-19T13:46:31.111Z,96473.94
2019-01-19T13:49:38.356Z,96478.59
2019-01-19T13:52:45.655Z,96470.27
2019-01-19T13:55:54.234Z,96458.53
2019-01-19T14:05:09.045Z,96460.54
2019-01-19T14:11:29.956Z,96456.73
2019-01-19T14:14:37.203Z,96451.16
2019-01-19T14:17:44.456Z,96449.44
2019-01-19T14:20:51.751Z,96439.11
2019-01-19T14:24:00.242Z,96438.80
2019-01-19T14:27:08.904Z,96433.95
2019-01-19T14:30:17.624Z,96430.19
2019-01-19T14:33:26.135Z,96432.03
2019-01-19T14:36:34.762Z,96430.30
2019-01-19T14:39:41.992Z,96431.28
2019-01-19T14:42:49.331Z,96430.02
2019-01-19T14:45:56.581Z,96423.35
2019-01-19T14:49:03.778Z,96423.69
2019-01-19T14:52:12.265Z,96425.44
2019-01-19T14:55:19.474Z,96426.00
2019-01-19T14:58:28.104Z,96420.70
2019-01-19T15:01:35.284Z,96426.48
2019-01-19T15:04:42.539Z,96421.17
2019-01-19T15:07:51.039Z,96421.11
2019-01-19T15:10:59.517Z,96417.73
2019-01-19T15:14:07.056Z,96418.19
2019-01-19T15:17:14.293Z,96419.20
2019-01-19T15:20:21.544Z,96424.84
2019-01-19T15:23:30.097Z,96414.84
2019-01-19T15:26:38.593Z,96419.63
2019-01-19T15:29:45.882Z,96416.68
2019-01-19T15:32:54.376Z,96413.61
2019-01-19T15:36:01.623Z,96415.58
2019-01-19T15:39:11.068Z,96414.78
2019-01-19T15:42:20.566Z,96407.86
2019-01-19T15:45:27.798Z,96409.25
2019-01-19T15:48:35.006Z,96406.91
2019-01-19T15:51:43.522Z,96405.45
2019-01-19T15:54:52.143Z,96402.84
2019-01-19T15:58:00.688Z,96408.69
2019-01-19T16:01:09.247Z,96409.81
2019-01-19T16:04:17.798Z,96408.23
2019-01-19T16:07:26.264Z,96405.83
2019-01-19T16:10:33.505Z,96398.74
2019-01-19T16:13:40.694Z,96404.77
2019-01-19T16:16:47.986Z,96404.57
2019-01-19T16:19:56.495Z,96409.28
2019-01-19T16:23:03.668Z,96405.42
2019-01-19T16:26:10.920Z,96408.44
2019-01-19T16:29:19.500Z,96411.04
2019-01-19T16:32:26.711Z,96405.53
2019-01-19T16:35:33.965Z,96410.80
2019-01-19T16:38:42.513Z,96407.29
2019-01-19T16:41:49.711Z,96405.77
2019-01-19T16:44:56.948Z,96404.39
2019-01-19T16:48:04.526Z,96394.11
2019-01-19T16:51:11.722Z,96402.16
2019-01-19T16:54:19.359Z,96399.55
2019-01-19T16:57:26.991Z,96405.39
2019-01-19T17:00:34.196Z,96397.51
2019-01-19T17:03:42.763Z,96396.09
2019-01-19T17:06:57.155Z,96395.16
2019-01-19T17:10:05.685Z,96392.31
2019-01-19T17:13:12.930Z,96388.91
2019-01-19T17:16:21.484Z,96386.77
2019-01-19T17:19:28.717Z,96384.09
2019-01-19T17:22:37.288Z,96392.02
2019-01-19T17:25:44.488Z,96389.03
2019-01-19T17:28:51.748Z,96384.34
2019-01-19T17:32:00.293Z,96388.50
2019-01-19T17:35:07.531Z,96385.94
2019-01-19T17:38:16.028Z,96387.44
2019-01-19T17:41:23.220Z,96380.40
2019-01-19T17:44:31.769Z,96377.52
2019-01-19T17:47:38.958Z,96376.00
2019-01-19T17:50:47.455Z,96381.91
2019-01-19T17:53:54.639Z,96376.88
2019-01-19T17:57:01.872Z,96380.69
2019-01-19T18:00:10.329Z,96384.84
2019-01-19T18:02:59.650Z,96382.95
2019-01-19T18:06:06.899Z,96378.77
2019-01-19T18:09:15.211Z,96379.95
2019-01-19T18:12:24.309Z,96381.16
2019-01-19T18:15:31.547Z,96374.37
2019-01-19T18:18:40.098Z,96374.12
2019-01-19T18:21:47.345Z,96373.75
2019-01-19T18:24:54.576Z,96367.84
2019-01-19T18:28:01.872Z,96370.18
2019-01-19T18:31:09.204Z,96370.27
2019-01-19T18:34:16.451Z,96366.16
2019-01-19T18:37:23.689Z,96365.31
2019-01-19T18:40:32.181Z,96366.98
2019-01-19T18:43:39.383Z,96367.42
2019-01-19T18:46:47.888Z,96369.05
2019-01-19T18:49:55.140Z,96369.52
2019-01-19T18:53:03.633Z,96363.61
2019-01-19T18:59:07.287Z,96364.78
2019-01-19T19:02:14.482Z,96361.12
2019-01-19T19:05:21.739Z,96357.81
2019-01-19T19:08:30.200Z,96353.88
2019-01-19T19:11:37.439Z,96351.94
2019-01-19T19:14:45.948Z,96356.73
2019-01-19T19:17:54.430Z,96358.93
2019-01-19T19:21:01.659Z,96353.64
2019-01-19T19:24:08.897Z,96350.70
2019-01-19T19:27:17.366Z,96354.45
2019-01-19T19:30:24.605Z,96352.59
2019-01-19T19:33:33.214Z,96351.48
2019-01-19T19:36:22.738Z,96346.33
2019-01-19T19:42:30.513Z,96349.66
2019-01-19T19:45:37.754Z,96345.16
2019-01-19T19:48:46.352Z,96339.48
2019-01-19T19:51:53.598Z,96336.30
2019-01-19T19:57:49.578Z,96341.83
2019-01-19T20:00:38.008Z,96342.63
2019-01-19T20:06:00.423Z,96340.06
2019-01-19T20:08:48.220Z,96349.89
2019-01-19T20:11:16.982Z,96344.59
2019-01-19T20:14:04.904Z,96342.67
2019-01-19T20:16:52.745Z,96341.63
2019-01-19T20:19:40.580Z,96341.77
2019-01-19T20:25:16.219Z,96338.81
2019-01-19T20:27:46.300Z,96343.73
2019-01-19T20:30:34.623Z,96341.97
2019-01-19T20:33:22.577Z,96341.97
2019-01-19T20:35:51.396Z,96351.44
2019-01-19T20:38:39.365Z,96347.59
2019-01-19T20:41:27.345Z,96346.09
2019-01-19T20:44:15.327Z,96345.80
2019-01-19T21:03:41.837Z,96349.30
2019-01-19T21:06:29.871Z,96348.78
2019-01-19T21:09:17.945Z,96346.33
2019-01-19T21:11:48.533Z,96346.33
2019-01-19T21:20:46.767Z,96348.49
2019-01-19T21:23:55.244Z,96346.61
2019-01-19T21:29:51.419Z,96339.84
2019-01-19T21:32:39.360Z,96339.09
2019-01-19T21:38:20.668Z,96346.51
2019-01-19T21:41:08.739Z,96340.25
2019-01-19T21:44:17.561Z,96340.25
2019-01-19T21:47:07.525Z,96337.11
2019-01-19T22:04:00.650Z,96330.80
2019-01-19T22:12:39.548Z,96326.87
2019-01-19T22:15:48.380Z,96327.17
2019-01-19T22:18:29.847Z,96325.65
2019-01-19T22:24:30.567Z,96340.22
2019-01-19T22:27:39.692Z,96334.64
2019-01-19T22:30:32.506Z,96333.05
2019-01-19T22:36:18.830Z,96323.84
2019-01-19T22:39:06.822Z,96324.80
2019-01-19T22:47:44.918Z,96315.38
2019-01-19T22:50:53.559Z,96324.81
2019-01-19T22:53:41.895Z,96319.86
2019-01-19T23:02:13.101Z,96318.56
2019-01-19T23:04:41.836Z,96321.55
2019-01-19T23:07:10.620Z,96313.44
2019-01-19T23:09:39.304Z,96316.57
2019-01-19T23:17:56.330Z,96308.36
2019-01-19T23:34:09.286Z,96313.13
2019-01-19T23:39:45.001Z,96299.45
2019-01-19T23:42:13.725Z,96292.84
2019-01-19T23:48:10.183Z,96296.77
2019-01-19T23:51:18.665Z,96294.97
2019-01-19T23:53:47.381Z,96291.61
2019-01-19T23:56:16.056Z,96285.44
2019-01-19T23:59:04.080Z,96283.97
